createdAt,value
2018-06-30T00:00:43.282Z,20.10
2018-06-30T00:03:12.453Z,20.21
2018-06-30T00:05:41.635Z,20.02
2018-06-30T00:08:10.824Z,19.73
2018-06-30T00:10:40.057Z,19.64
2018-06-30T00:13:09.254Z,20.05
2018-06-30T00:15:38.436Z,19.64
2018-06-30T00:18:08.537Z,19.85
2018-06-30T00:20:37.881Z,19.93
2018-06-30T00:23:07.186Z,19.80
2018-06-30T00:25:36.346Z,20.03
2018-06-30T00:28:05.612Z,19.68
2018-06-30T00:30:34.800Z,19.93
2018-06-30T00:33:04.020Z,19.70
2018-06-30T00:35:33.212Z,19.94
2018-06-30T00:38:02.405Z,19.81
2018-06-30T00:40:31.586Z,19.87
2018-06-30T00:43:00.774Z,19.93
2018-06-30T00:45:29.933Z,19.67
2018-06-30T00:47:59.092Z,19.67
2018-06-30T00:50:28.268Z,19.63
2018-06-30T00:52:57.424Z,19.70
2018-06-30T00:55:26.576Z,20.01
2018-06-30T00:57:55.777Z,19.38
2018-06-30T01:00:24.945Z,19.56
2018-06-30T01:02:54.148Z,19.65
2018-06-30T01:05:23.503Z,19.58
2018-06-30T01:07:52.661Z,19.77
2018-06-30T01:10:21.828Z,19.84
2018-06-30T01:12:51.040Z,19.60
2018-06-30T01:15:20.289Z,19.67
2018-06-30T01:17:49.481Z,19.36
2018-06-30T01:20:18.805Z,19.37
2018-06-30T01:22:47.984Z,19.37
2018-06-30T01:25:17.176Z,19.55
2018-06-30T01:27:46.362Z,19.45
2018-06-30T01:30:15.585Z,19.51
2018-06-30T01:32:44.804Z,19.35
2018-06-30T01:35:13.952Z,19.11
2018-06-30T01:37:43.178Z,19.38
2018-06-30T01:40:12.355Z,19.30
2018-06-30T01:42:41.571Z,18.99
2018-06-30T01:45:10.750Z,18.96
2018-06-30T01:47:39.954Z,19.11
2018-06-30T01:50:09.136Z,19.24
2018-06-30T01:52:38.332Z,19.15
2018-06-30T01:55:07.495Z,19.49
2018-06-30T01:57:36.692Z,19.32
2018-06-30T02:00:06.150Z,19.33
2018-06-30T02:02:35.372Z,19.27
2018-06-30T02:05:04.612Z,19.37
2018-06-30T02:07:33.782Z,19.47
2018-06-30T02:10:02.978Z,19.46
2018-06-30T02:12:32.140Z,19.28
2018-06-30T02:15:01.353Z,19.27
2018-06-30T02:17:30.518Z,19.08
2018-06-30T02:19:59.684Z,19.50
2018-06-30T02:22:28.863Z,19.09
2018-06-30T02:24:58.033Z,19.10
2018-06-30T02:27:27.233Z,18.97
2018-06-30T02:29:56.391Z,19.09
2018-06-30T02:32:25.644Z,18.93
2018-06-30T02:34:54.812Z,18.75
2018-06-30T02:37:24.004Z,18.76
2018-06-30T02:39:53.480Z,18.77
2018-06-30T02:42:22.649Z,18.99
2018-06-30T02:44:51.832Z,18.80
2018-06-30T02:47:21.067Z,18.83
2018-06-30T02:49:50.268Z,18.55
2018-06-30T02:52:19.477Z,18.67
2018-06-30T02:54:48.702Z,18.91
2018-06-30T02:57:17.908Z,18.95
2018-06-30T02:59:47.134Z,18.59
2018-06-30T03:02:16.355Z,18.71
2018-06-30T03:04:45.540Z,18.37
2018-06-30T03:07:14.710Z,18.98
2018-06-30T03:09:43.946Z,18.69
2018-06-30T03:12:13.157Z,18.81
2018-06-30T03:14:42.346Z,18.71
2018-06-30T03:17:11.551Z,19.03
2018-06-30T03:19:40.777Z,18.68
2018-06-30T03:22:09.956Z,19.02
2018-06-30T03:24:39.137Z,18.95
2018-06-30T03:27:08.344Z,18.91
2018-06-30T03:29:37.548Z,19.09
2018-06-30T03:32:06.727Z,18.89
2018-06-30T03:34:35.913Z,18.55
2018-06-30T03:37:05.338Z,18.82
2018-06-30T03:39:34.531Z,18.75
2018-06-30T03:42:03.717Z,18.99
2018-06-30T03:44:32.895Z,18.81
2018-06-30T03:47:02.125Z,18.88
2018-06-30T03:49:31.307Z,18.83
2018-06-30T03:52:00.504Z,18.80
2018-06-30T03:54:29.669Z,18.74
2018-06-30T03:56:58.924Z,18.48
2018-06-30T03:59:28.101Z,18.61
2018-06-30T04:01:57.266Z,18.92
2018-06-30T04:04:26.486Z,18.93
2018-06-30T04:06:55.644Z,18.95
2018-06-30T04:09:24.843Z,18.94
2018-06-30T04:11:54.037Z,18.61
2018-06-30T04:14:23.235Z,19.06
2018-06-30T04:16:52.438Z,18.94
2018-06-30T04:19:21.644Z,19.17
2018-06-30T04:21:50.861Z,18.84
2018-06-30T04:24:20.053Z,18.94
2018-06-30T04:26:49.245Z,18.93
2018-06-30T04:29:18.459Z,19.13
2018-06-30T04:31:47.636Z,19.27
2018-06-30T04:34:16.844Z,19.59
2018-06-30T04:36:46.060Z,19.46
2018-06-30T04:39:15.252Z,19.34
2018-06-30T04:41:44.442Z,19.61
2018-06-30T04:44:13.661Z,19.58
2018-06-30T04:46:42.858Z,19.49
2018-06-30T04:49:12.021Z,19.63
2018-06-30T04:51:41.250Z,20.03
2018-06-30T04:54:10.465Z,19.98
2018-06-30T04:56:39.658Z,19.81
2018-06-30T04:59:08.856Z,19.22
2018-06-30T05:01:38.074Z,19.47
2018-06-30T05:04:07.268Z,19.76
2018-06-30T05:06:36.454Z,20.07
2018-06-30T05:09:07.128Z,20.26
2018-06-30T05:11:36.323Z,20.39
2018-06-30T05:14:05.521Z,20.42
2018-06-30T05:16:34.767Z,20.37
2018-06-30T05:19:04.001Z,21.85
2018-06-30T05:21:33.156Z,23.28
2018-06-30T05:24:02.403Z,25.44
2018-06-30T05:26:31.521Z,25.73
2018-06-30T05:29:00.700Z,25.55
2018-06-30T05:31:29.888Z,26.26
2018-06-30T05:33:59.102Z,26.38
2018-06-30T05:36:28.279Z,28.03
2018-06-30T05:38:57.442Z,28.36
2018-06-30T05:41:26.612Z,27.43
2018-06-30T05:43:55.843Z,28.00
2018-06-30T05:46:25.141Z,27.91
2018-06-30T05:48:54.362Z,28.44
2018-06-30T05:51:23.606Z,28.37
2018-06-30T05:54:04.332Z,28.63
2018-06-30T05:56:43.026Z,28.63
2018-06-30T05:59:12.798Z,28.17
2018-06-30T06:01:43.362Z,29.22
2018-06-30T06:04:12.781Z,30.05
2018-06-30T06:06:41.987Z,30.00
2018-06-30T06:09:12.284Z,29.76
2018-06-30T06:11:42.072Z,30.17
2018-06-30T06:14:11.749Z,31.42
2018-06-30T06:16:41.474Z,32.03
2018-06-30T06:19:10.701Z,30.72
2018-06-30T06:21:39.890Z,31.52
2018-06-30T06:24:09.116Z,31.91
2018-06-30T06:26:38.325Z,32.25
2018-06-30T06:29:07.736Z,31.57
2018-06-30T06:31:36.944Z,31.46
2018-06-30T06:34:06.198Z,31.92
2018-06-30T06:36:35.386Z,32.10
2018-06-30T06:39:06.172Z,33.43
2018-06-30T06:41:35.419Z,32.16
2018-06-30T06:44:04.643Z,31.68
2018-06-30T06:46:33.896Z,31.86
2018-06-30T06:49:03.073Z,31.15
2018-06-30T06:51:32.280Z,32.48
2018-06-30T06:54:01.596Z,31.91
2018-06-30T06:56:30.809Z,33.20
2018-06-30T06:58:59.981Z,33.82
2018-06-30T07:01:29.230Z,33.32
2018-06-30T07:03:58.460Z,32.88
2018-06-30T07:06:27.673Z,32.69
2018-06-30T07:08:56.852Z,32.34
2018-06-30T07:11:26.043Z,33.35
2018-06-30T07:13:55.228Z,32.57
2018-06-30T07:16:24.412Z,33.01
2018-06-30T07:18:53.599Z,31.94
2018-06-30T07:21:22.836Z,31.11
2018-06-30T07:23:52.041Z,32.06
2018-06-30T07:26:21.268Z,32.37
2018-06-30T07:28:50.557Z,31.14
2018-06-30T07:31:19.772Z,28.65
2018-06-30T07:33:48.966Z,30.04
2018-06-30T07:36:18.177Z,31.19
2018-06-30T07:38:47.379Z,31.15
2018-06-30T07:41:16.635Z,32.43
2018-06-30T07:43:45.856Z,32.31
2018-06-30T07:46:15.087Z,32.35
2018-06-30T07:48:44.264Z,33.25
2018-06-30T07:51:13.623Z,31.75
2018-06-30T07:53:43.889Z,33.31
2018-06-30T07:56:13.346Z,32.54
2018-06-30T07:58:42.607Z,34.16
2018-06-30T08:01:11.897Z,32.48
2018-06-30T08:03:42.102Z,34.56
2018-06-30T08:06:11.412Z,33.93
2018-06-30T08:08:40.689Z,32.12
2018-06-30T08:11:09.969Z,32.45
2018-06-30T08:13:39.305Z,31.95
2018-06-30T08:16:08.715Z,31.88
2018-06-30T08:18:38.023Z,32.99
2018-06-30T08:21:07.384Z,31.87
2018-06-30T08:23:36.657Z,33.19
2018-06-30T08:26:05.966Z,33.49
2018-06-30T08:28:35.329Z,34.95
2018-06-30T08:31:04.728Z,34.59
2018-06-30T08:33:33.945Z,35.42
2018-06-30T08:36:03.269Z,35.21
2018-06-30T08:38:32.592Z,34.69
2018-06-30T08:41:01.898Z,34.45
2018-06-30T08:43:31.200Z,34.42
2018-06-30T08:46:00.619Z,34.26
2018-06-30T08:48:29.935Z,34.57
2018-06-30T08:50:59.198Z,34.50
2018-06-30T08:53:28.410Z,34.30
2018-06-30T08:55:57.741Z,34.15
2018-06-30T08:58:26.984Z,33.61
2018-06-30T09:00:56.425Z,33.69
2018-06-30T09:03:25.769Z,33.77
2018-06-30T09:05:55.106Z,34.96
2018-06-30T09:08:24.442Z,35.19
2018-06-30T09:10:53.921Z,35.27
2018-06-30T09:13:23.406Z,34.03
2018-06-30T09:15:52.753Z,35.28
2018-06-30T09:18:22.141Z,35.23
2018-06-30T09:20:51.427Z,34.07
2018-06-30T09:23:20.766Z,35.61
2018-06-30T09:25:50.070Z,34.66
2018-06-30T09:28:19.316Z,34.57
2018-06-30T09:30:48.613Z,36.51
2018-06-30T09:33:19.820Z,35.71
2018-06-30T09:35:49.946Z,34.89
2018-06-30T09:38:19.160Z,35.64
2018-06-30T09:40:48.518Z,36.77
2018-06-30T09:43:17.890Z,35.97
2018-06-30T09:45:47.229Z,35.48
2018-06-30T09:48:16.452Z,35.16
2018-06-30T09:50:45.799Z,35.42
2018-06-30T09:53:15.072Z,35.35
2018-06-30T09:55:44.389Z,34.19
2018-06-30T09:58:13.604Z,34.67
2018-06-30T10:00:48.349Z,35.46
2018-06-30T10:03:18.871Z,36.10
2018-06-30T10:05:48.694Z,34.49
2018-06-30T10:08:19.141Z,34.11
2018-06-30T10:10:49.111Z,35.03
2018-06-30T10:13:18.609Z,35.83
2018-06-30T10:15:47.975Z,35.55
2018-06-30T10:18:17.339Z,36.97
2018-06-30T10:20:46.672Z,35.05
2018-06-30T10:23:16.036Z,35.91
2018-06-30T10:25:45.289Z,33.89
2018-06-30T10:28:14.697Z,34.56
2018-06-30T10:30:43.972Z,33.91
2018-06-30T10:33:13.342Z,35.78
2018-06-30T10:35:42.593Z,36.14
2018-06-30T10:38:11.955Z,35.63
2018-06-30T10:40:41.361Z,35.64
2018-06-30T10:43:10.891Z,35.51
2018-06-30T10:45:40.187Z,35.97
2018-06-30T10:48:09.544Z,35.54
2018-06-30T10:50:38.844Z,34.53
2018-06-30T10:53:08.112Z,35.33
2018-06-30T10:55:37.344Z,35.31
2018-06-30T10:58:06.735Z,34.65
2018-06-30T11:00:36.009Z,34.67
2018-06-30T11:03:05.459Z,33.30
2018-06-30T11:05:34.712Z,33.68
2018-06-30T11:08:04.251Z,32.59
2018-06-30T11:10:33.511Z,34.05
2018-06-30T11:13:02.757Z,34.57
2018-06-30T11:15:31.969Z,31.39
2018-06-30T11:18:01.289Z,31.57
2018-06-30T11:20:30.502Z,30.75
2018-06-30T11:22:59.765Z,30.67
2018-06-30T11:25:28.999Z,29.98
2018-06-30T11:27:58.374Z,28.93
2018-06-30T11:30:27.594Z,28.74
2018-06-30T11:32:56.815Z,28.78
2018-06-30T11:35:26.016Z,29.08
2018-06-30T11:37:55.315Z,29.51
2018-06-30T11:40:24.626Z,29.95
2018-06-30T11:42:53.885Z,30.28
2018-06-30T11:45:23.312Z,30.04
2018-06-30T11:47:52.528Z,29.64
2018-06-30T11:50:22.350Z,29.43
2018-06-30T11:52:51.544Z,29.18
2018-06-30T11:55:20.787Z,29.61
2018-06-30T11:57:49.993Z,29.96
2018-06-30T12:00:19.255Z,30.09
2018-06-30T12:02:48.504Z,29.73
2018-06-30T12:05:17.709Z,29.71
2018-06-30T12:07:46.993Z,29.60
2018-06-30T12:10:16.180Z,30.05
2018-06-30T12:12:45.401Z,29.15
2018-06-30T12:15:14.681Z,29.71
2018-06-30T12:17:43.927Z,30.13
2018-06-30T12:20:13.124Z,30.50
2018-06-30T12:22:42.431Z,31.00
2018-06-30T12:25:11.722Z,30.22
2018-06-30T12:27:41.010Z,29.58
2018-06-30T12:30:10.256Z,30.34
2018-06-30T12:32:39.443Z,29.57
2018-06-30T12:35:08.777Z,29.18
2018-06-30T12:37:38.049Z,29.15
2018-06-30T12:40:07.277Z,29.53
2018-06-30T12:42:36.467Z,29.92
2018-06-30T12:45:05.851Z,30.31
2018-06-30T12:47:34.980Z,30.67
2018-06-30T12:50:04.281Z,30.16
2018-06-30T12:52:33.570Z,30.00
2018-06-30T12:55:02.952Z,29.76
2018-06-30T12:57:32.192Z,30.39
2018-06-30T13:00:01.438Z,30.42
2018-06-30T13:02:31.697Z,29.68
2018-06-30T13:05:01.039Z,28.00
2018-06-30T13:07:30.252Z,29.75
2018-06-30T13:09:59.516Z,29.69
2018-06-30T13:12:29.045Z,29.00
2018-06-30T13:14:58.452Z,28.79
2018-06-30T13:17:27.853Z,28.81
2018-06-30T13:19:58.061Z,29.50
2018-06-30T13:22:27.373Z,28.81
2018-06-30T13:24:56.833Z,29.26
2018-06-30T13:27:26.196Z,29.68
2018-06-30T13:29:55.423Z,29.26
2018-06-30T13:32:24.833Z,29.37
2018-06-30T13:34:54.137Z,29.70
2018-06-30T13:37:23.533Z,28.83
2018-06-30T13:39:52.961Z,28.70
2018-06-30T13:42:22.301Z,28.82
2018-06-30T13:44:51.642Z,28.65
2018-06-30T13:47:22.281Z,29.06
2018-06-30T13:49:51.681Z,28.99
2018-06-30T13:52:21.545Z,29.50
2018-06-30T13:54:51.143Z,29.48
2018-06-30T13:57:20.761Z,29.09
2018-06-30T13:59:50.226Z,29.74
2018-06-30T14:02:19.719Z,29.84
2018-06-30T14:04:49.241Z,28.73
2018-06-30T14:07:18.705Z,28.31
2018-06-30T14:09:48.020Z,28.15
2018-06-30T14:12:17.358Z,28.25
2018-06-30T14:14:46.643Z,29.27
2018-06-30T14:17:16.045Z,27.86
2018-06-30T14:19:45.245Z,28.54
2018-06-30T14:22:14.858Z,28.16
2018-06-30T14:24:44.195Z,29.14
2018-06-30T14:27:13.786Z,29.12
2018-06-30T14:29:43.014Z,29.48
2018-06-30T14:32:12.468Z,29.89
2018-06-30T14:34:42.059Z,27.97
2018-06-30T14:37:11.543Z,28.11
2018-06-30T14:39:40.891Z,29.25
2018-06-30T14:42:10.535Z,29.20
2018-06-30T14:44:39.916Z,28.45
2018-06-30T14:47:09.257Z,27.47
2018-06-30T14:49:38.851Z,28.54
2018-06-30T14:52:08.439Z,28.61
2018-06-30T14:54:37.763Z,29.17
2018-06-30T14:57:07.100Z,30.22
2018-06-30T14:59:37.916Z,29.73
2018-06-30T15:02:07.468Z,29.86
2018-06-30T15:04:37.907Z,29.99
2018-06-30T15:07:07.625Z,30.31
2018-06-30T15:09:36.973Z,30.43
2018-06-30T15:12:06.362Z,28.55
2018-06-30T15:14:37.044Z,29.04
2018-06-30T15:17:06.621Z,27.78
2018-06-30T15:19:36.268Z,28.19
2018-06-30T15:22:05.599Z,28.83
2018-06-30T15:24:34.997Z,28.29
2018-06-30T15:27:05.779Z,28.87
2018-06-30T15:29:35.165Z,28.79
2018-06-30T15:32:04.467Z,29.70
2018-06-30T15:34:34.025Z,28.48
2018-06-30T15:37:03.729Z,29.52
2018-06-30T15:39:33.052Z,29.11
2018-06-30T15:42:02.397Z,28.91
2018-06-30T15:44:31.752Z,29.73
2018-06-30T15:47:01.169Z,28.27
2018-06-30T15:49:30.934Z,29.12
2018-06-30T15:52:00.286Z,28.70
2018-06-30T15:54:29.865Z,29.53
2018-06-30T15:56:59.240Z,29.41
2018-06-30T15:59:29.623Z,28.27
2018-06-30T16:02:01.407Z,29.20
2018-06-30T16:04:31.020Z,29.75
2018-06-30T16:07:00.510Z,28.74
2018-06-30T16:09:30.986Z,28.76
2018-06-30T16:12:00.536Z,28.04
2018-06-30T16:14:29.997Z,28.94
2018-06-30T16:17:00.306Z,28.71
2018-06-30T16:19:29.595Z,28.18
2018-06-30T16:21:59.323Z,28.33
2018-06-30T16:24:29.008Z,28.86
2018-06-30T16:26:58.414Z,28.62
2018-06-30T16:29:27.881Z,28.50
2018-06-30T16:31:57.665Z,28.00
2018-06-30T16:34:27.118Z,28.25
2018-06-30T16:36:56.745Z,28.47
2018-06-30T16:39:26.399Z,28.18
2018-06-30T16:41:55.916Z,28.90
2018-06-30T16:44:25.374Z,27.55
2018-06-30T16:46:55.208Z,28.12
2018-06-30T16:49:24.795Z,27.81
2018-06-30T16:51:54.300Z,28.04
2018-06-30T16:54:24.888Z,27.78
2018-06-30T16:56:54.210Z,27.11
2018-06-30T16:59:23.529Z,27.63
2018-06-30T17:01:52.852Z,26.89
2018-06-30T17:04:22.116Z,25.88
2018-06-30T17:06:51.494Z,26.54
2018-06-30T17:09:20.872Z,26.66
2018-06-30T17:11:50.136Z,27.02
2018-06-30T17:14:20.069Z,27.80
2018-06-30T17:16:49.487Z,26.69
2018-06-30T17:19:20.080Z,27.43
2018-06-30T17:21:49.768Z,26.97
2018-06-30T17:24:19.481Z,27.39
2018-06-30T17:26:48.844Z,26.80
2018-06-30T17:29:18.189Z,26.65
2018-06-30T17:31:47.436Z,27.23
2018-06-30T17:34:16.717Z,26.96
2018-06-30T17:36:45.978Z,27.41
2018-06-30T17:39:15.603Z,26.85
2018-06-30T17:41:44.982Z,26.60
2018-06-30T17:44:14.204Z,26.65
2018-06-30T17:46:43.619Z,26.75
2018-06-30T17:49:13.147Z,26.54
2018-06-30T17:51:42.467Z,26.52
2018-06-30T17:54:11.699Z,25.92
2018-06-30T17:56:41.006Z,25.98
2018-06-30T17:59:10.258Z,25.86
2018-06-30T18:01:39.582Z,26.41
2018-06-30T18:04:08.786Z,26.23
2018-06-30T18:06:38.036Z,25.19
2018-06-30T18:09:08.872Z,26.26
2018-06-30T18:11:38.204Z,26.31
2018-06-30T18:14:07.752Z,26.60
2018-06-30T18:16:36.991Z,26.60
2018-06-30T18:19:06.553Z,26.63
2018-06-30T18:21:35.795Z,25.71
2018-06-30T18:24:05.045Z,25.68
2018-06-30T18:26:34.284Z,25.59
2018-06-30T18:29:03.761Z,25.89
2018-06-30T18:31:33.095Z,25.92
2018-06-30T18:34:02.764Z,25.93
2018-06-30T18:36:32.006Z,25.09
2018-06-30T18:39:01.311Z,25.60
2018-06-30T18:41:30.608Z,25.81
2018-06-30T18:43:59.861Z,25.53
2018-06-30T18:46:29.125Z,25.55
2018-06-30T18:48:58.522Z,25.46
2018-06-30T18:51:27.721Z,25.33
2018-06-30T18:53:57.020Z,25.04
2018-06-30T18:56:26.275Z,25.05
2018-06-30T18:58:55.495Z,24.72
2018-06-30T19:01:24.672Z,24.11
2018-06-30T19:03:54.286Z,24.54
2018-06-30T19:06:23.461Z,24.27
2018-06-30T19:08:52.760Z,25.01
2018-06-30T19:11:21.989Z,24.18
2018-06-30T19:13:51.425Z,23.97
2018-06-30T19:16:20.632Z,24.17
2018-06-30T19:18:49.922Z,23.62
2018-06-30T19:21:19.255Z,23.95
2018-06-30T19:23:48.532Z,24.17
2018-06-30T19:26:17.836Z,24.18
2018-06-30T19:28:47.400Z,24.21
2018-06-30T19:31:16.739Z,24.10
2018-06-30T19:33:46.010Z,23.43
2018-06-30T19:36:15.505Z,23.71
2018-06-30T19:38:44.903Z,23.67
2018-06-30T19:41:14.081Z,23.68
2018-06-30T19:43:43.493Z,23.23
2018-06-30T19:46:12.702Z,23.67
2018-06-30T19:48:41.915Z,23.59
2018-06-30T19:51:11.389Z,23.46
2018-06-30T19:53:40.714Z,23.60
2018-06-30T19:56:10.142Z,22.57
2018-06-30T19:58:39.567Z,23.07
2018-06-30T20:01:08.840Z,22.71
2018-06-30T20:03:38.094Z,22.66
2018-06-30T20:06:07.424Z,22.75
2018-06-30T20:08:36.572Z,22.88
2018-06-30T20:11:05.852Z,22.51
2018-06-30T20:13:35.033Z,22.49
2018-06-30T20:16:04.272Z,22.16
2018-06-30T20:18:33.686Z,22.59
2018-06-30T20:21:02.924Z,22.94
2018-06-30T20:23:32.316Z,21.93
2018-06-30T20:26:01.649Z,21.94
2018-06-30T20:28:30.867Z,21.59
2018-06-30T20:31:00.104Z,22.10
2018-06-30T20:33:29.376Z,21.64
2018-06-30T20:35:58.632Z,21.65
2018-06-30T20:38:27.794Z,21.90
2018-06-30T20:40:57.069Z,21.98
2018-06-30T20:43:26.402Z,22.05
2018-06-30T20:45:55.672Z,21.93
2018-06-30T20:48:24.932Z,21.13
2018-06-30T20:50:54.142Z,21.64
2018-06-30T20:53:23.428Z,22.00
2018-06-30T20:55:52.838Z,21.58
2018-06-30T20:58:22.252Z,21.43
2018-06-30T21:00:51.634Z,21.00
2018-06-30T21:03:20.924Z,20.84
2018-06-30T21:05:50.312Z,21.34
2018-06-30T21:08:19.577Z,21.06
2018-06-30T21:10:48.888Z,21.03
2018-06-30T21:13:18.078Z,20.77
2018-06-30T21:15:47.314Z,21.43
2018-06-30T21:18:16.560Z,20.46
2018-06-30T21:20:46.058Z,21.11
2018-06-30T21:23:15.400Z,21.31
2018-06-30T21:25:44.950Z,21.05
2018-06-30T21:28:14.559Z,20.52
2018-06-30T21:30:43.967Z,20.75
2018-06-30T21:33:13.128Z,20.22
2018-06-30T21:35:42.462Z,20.77
2018-06-30T21:38:11.748Z,20.62
2018-06-30T21:40:41.047Z,20.49
2018-06-30T21:43:10.241Z,20.64
2018-06-30T21:45:39.464Z,20.42
2018-06-30T21:48:08.747Z,20.43
2018-06-30T21:50:38.269Z,20.15
2018-06-30T21:53:07.808Z,20.48
2018-06-30T21:55:37.072Z,20.71
2018-06-30T21:58:06.968Z,20.65
2018-06-30T22:00:48.826Z,20.42
2018-06-30T22:03:21.072Z,20.49
2018-06-30T22:05:50.784Z,20.32
2018-06-30T22:08:20.031Z,20.26
2018-06-30T22:10:49.417Z,19.69
2018-06-30T22:13:19.068Z,20.18
2018-06-30T22:15:48.687Z,20.33
2018-06-30T22:18:18.065Z,20.21
2018-06-30T22:20:47.418Z,20.68
2018-06-30T22:23:16.636Z,20.48
2018-06-30T22:25:45.823Z,20.49
2018-06-30T22:28:15.079Z,20.66
2018-06-30T22:30:44.267Z,20.50
2018-06-30T22:33:13.505Z,20.22
2018-06-30T22:35:42.880Z,19.62
2018-06-30T22:38:12.069Z,19.57
2018-06-30T22:40:41.227Z,19.78
2018-06-30T22:43:10.455Z,19.53
2018-06-30T22:45:39.788Z,19.40
2018-06-30T22:48:09.346Z,18.89
2018-06-30T22:50:38.799Z,18.95
2018-06-30T22:53:08.148Z,19.16
2018-06-30T22:55:38.528Z,19.40
2018-06-30T22:58:07.797Z,19.68
2018-06-30T23:00:37.016Z,19.69
2018-06-30T23:03:10.114Z,18.85
2018-06-30T23:05:40.086Z,18.87
2018-06-30T23:08:09.380Z,18.78
2018-06-30T23:10:38.634Z,19.33
2018-06-30T23:13:08.650Z,19.51
2018-06-30T23:15:38.155Z,19.45
2018-06-30T23:18:07.544Z,19.51
2018-06-30T23:20:36.868Z,18.61
2018-06-30T23:23:08.228Z,18.71
2018-06-30T23:25:38.049Z,19.31
2018-06-30T23:28:08.660Z,19.28
2018-06-30T23:30:37.911Z,19.51
2018-06-30T23:33:07.233Z,19.31
2018-06-30T23:35:36.541Z,18.64
2018-06-30T23:38:05.793Z,19.21
2018-06-30T23:40:35.053Z,18.88
2018-06-30T23:43:04.314Z,18.62
2018-06-30T23:45:33.666Z,19.07
2018-06-30T23:48:02.960Z,19.18
2018-06-30T23:50:33.204Z,18.63
2018-06-30T23:53:02.463Z,18.33
2018-06-30T23:55:31.731Z,18.65
2018-06-30T23:58:00.976Z,19.11
